Strona główna
METAR-TAF:

Lotnisko :

Kraków, Polska

Port lotniczy Kraków-Balice

Szerokość geograficzna: 50-05N, Długość geograficzna: 019-48E, wysokość: 237 m

Aktualna obserwacja pogody

Raport powstał 38 minut temu, godzina 01:30 UTC
Wiatr 2 kt od zachodnio-południowy zachód
Temperatura 9°C
Wilgotność 93%
Ciśnienie 1026 hPa
Widzialność 10 km lub więcej
Brak chmur poniżej 1500 m i brak chmur cumulonimbus

METAR: EPKK 310130Z 24002KT CAVOK 09/08 Q1026

czas: 04:08 (02:08 UTC)

Prognoza

Raport powstał 2 godziny i 38 minut temu, godzina 23:30 UTC
Prognoza ważna od 31 godzina 00 UTC do 31 godzina 24 UTC
Wiatr 2 kt z kierunków zmiennych
Widzialność 10 km lub więcej
Brak chmur poniżej 1500 m i brak chmur cumulonimbus

TAF: EPKK 302330Z 3100/3124 VRB02KT CAVOK

METAR-TAF

Obserwacja i prognoza pogody dla ponad 4000 lotnisk (raport METAR i TAF).

Dostępne stacje oznaczono żółtymi i czerwonymi punktami na mapie.

Najedź kursorem aby zobaczyć nazwę stacji.

Kliknij aby zobaczyć obserwacje i prognozy pogody.

Aby zmienić mapę: kliknij na zielony przycisk z czarnym krzyżykiem, aby powiększyć; na zielony przycisk z myślnikiem, aby pomniejszyć; na zielone strzałki, aby przejść do map sąsiednich.


METAR-TAF: